Terminal Aerodrome Forecast
Issued by NWS

Home | Current Version | Previous Version | Graphics & Text | Print | Product List | Glossary On
Versions: 1 2 3 4 5 6 7 8 9 10 11 12 13 14 15 16 17
079
FTUS43 KICT 261740
TAFRSL
TAF
KRSL 261740Z 2618/2718 VRB05KT P6SM SCT250
     FM262100 11010KT P6SM VCTS SCT050CB
     FM270500 32011KT P6SM SCT150=

USA.gov is the U.S. government's official web portal to all federal, state and local government web resources and services.